Airfield :







YOU CAN JOIN US ON...

 
LOGIN :

Register | Disclaimer

   EN    FR    IT 

 









Legend :    VFR   Marginal VFR   IFR   Intensive IFR   Very Intensive IFR
Visi :
Ceiling :
>= 8 km
>= 3000ft
5 to 8 km
1000 to 3000 ft
1500m to 5 km
500 to 1000 ft
800 to 1500m
200 to 500 ft
< 800m
< 200 ft
Symbols :   Thunderstorms  Fog  Heavy snow  Heavy precipitations  Wind > 20 kt






- Airport Elevation : 39 ft
- IATA code : YNA


CYNA - Natashquan

CURRENT METAR :
  • 190200Z AUTO 04005KT 9SM BKN220 OVC240 M06/M07 A3007 RMK SLP185

EXPIRED METARs :
  • 190100Z AUTO 08002KT 9SM BKN240 M06/M07 A3010 RMK SLP194
  • 190000Z AUTO 03006KT 9SM SCT240 M06/M07 A3012 RMK ICG PAST HR SLP203
  • 182344Z AUTO 04006KT 9SM BKN240 M06/M07 A3013 RMK ICG PAST HR SLP206

TAF TAF CYNA
Valid from the 19 at 02:00 until the 19 at 14:00 UTC


190138Z 1902/1914 VRB03KT P6SM BKN240
FM190800 07010KT P6SM BKN150
FM191200 05012KT P6SM OVC120 RMK FCST BASED ON AUTO OBS. NXT FCST BY 190800Z



MET'MAP, your aeronautical weather chart ! - Copyright ORBIFLY December 2007 - Disclaimer

ORBIFLY MET'MAP TEAM :

Programming & Development : Alexandra Zaïnal
Concept & Development : Baudouin d'Aumeries
Co-Development & Prog : Marc-Olivier Méhu
Technical & hardware support : Manuel Goepfert

Contact : metmap@orbifly.com




SOURCES & CREDITS :

   NOAA